Time;durP1;ratioP1;P1;durP2;ratioP2;P2;SDS_P1;SDS_P2;PMS_P1;PMS_P2;Temp;Humidity;BMP_temperature;BMP_pressure;BME280_temperature;BME280_humidity;BME280_pressure;Samples;Min_cycle;Max_cycle;Signal;HPM_P1;HPM_P2
2023/11/08 00:00:08;;;;;;;3.45;0.82;;;8.70;99.90;;;;;;4995250;28;20494;-83
2023/11/08 00:02:34;;;;;;;2.45;0.98;;;8.70;99.90;;;;;;4984410;28;20501;-83
2023/11/08 00:05:00;;;;;;;7.10;0.88;;;8.70;99.90;;;;;;5001638;28;20037;-82
2023/11/08 00:07:26;;;;;;;2.95;0.70;;;8.70;99.90;;;;;;5001727;28;20030;-82
2023/11/08 00:09:51;;;;;;;2.17;0.47;;;8.70;99.90;;;;;;4999304;28;20030;-83
2023/11/08 00:12:17;;;;;;;2.67;0.57;;;8.70;99.90;;;;;;4984284;28;20074;-82
2023/11/08 00:14:43;;;;;;;1.35;0.60;;;8.70;99.90;;;;;;4983978;28;20044;-81
2023/11/08 00:17:09;;;;;;;4.25;0.80;;;8.70;99.90;;;;;;4967861;28;20042;-82
2023/11/08 00:19:34;;;;;;;4.93;0.85;;;8.70;99.90;;;;;;4988294;28;20046;-82
2023/11/08 00:22:00;;;;;;;3.72;0.88;;;8.70;99.90;;;;;;4987643;28;20148;-81
2023/11/08 00:24:29;;;;;;;3.60;1.33;;;8.70;99.90;;;;;;5016200;28;20038;-82
2023/11/08 00:26:54;;;;;;;2.30;0.70;;;8.80;99.90;;;;;;4989031;28;20038;-82
2023/11/08 00:29:20;;;;;;;2.95;0.65;;;8.70;99.90;;;;;;4987215;28;20486;-82
2023/11/08 00:31:47;;;;;;;2.70;0.95;;;8.70;99.90;;;;;;4996901;28;20415;-82
2023/11/08 00:34:15;;;;;;;2.47;0.60;;;8.80;99.90;;;;;;4988104;28;20065;-82
2023/11/08 00:36:41;;;;;;;2.50;0.85;;;8.70;99.90;;;;;;4989222;28;20406;-82
2023/11/08 00:39:07;;;;;;;3.03;0.80;;;8.70;99.90;;;;;;4984768;28;20181;-82
2023/11/08 00:41:34;;;;;;;1.13;0.55;;;8.80;99.90;;;;;;4987369;28;20026;-81
2023/11/08 00:44:00;;;;;;;0.30;0.17;;;8.80;99.90;;;;;;4999638;28;20031;-82
2023/11/08 00:46:26;;;;;;;1.40;0.52;;;8.80;99.90;;;;;;4986013;28;20035;-82
2023/11/08 00:48:52;;;;;;;4.78;1.60;;;8.80;99.90;;;;;;4987478;28;20060;-81
2023/11/08 00:51:19;;;;;;;1.60;0.75;;;8.80;99.90;;;;;;4970775;28;20397;-83
2023/11/08 00:53:45;;;;;;;0.52;0.22;;;8.80;99.90;;;;;;4999135;28;20030;-82
2023/11/08 00:56:12;;;;;;;3.00;0.88;;;8.80;99.90;;;;;;4989189;28;20038;-82
2023/11/08 00:58:38;;;;;;;1.75;0.63;;;8.80;99.90;;;;;;5017607;28;20034;-82
2023/11/08 01:01:05;;;;;;;5.43;1.00;;;8.80;99.90;;;;;;5015819;28;20034;-82
2023/11/08 01:03:32;;;;;;;3.13;0.77;;;8.80;99.90;;;;;;4988818;28;20052;-83
2023/11/08 01:05:57;;;;;;;2.05;1.05;;;8.80;99.90;;;;;;4987227;28;20446;-82
2023/11/08 01:08:23;;;;;;;1.33;0.50;;;8.80;99.90;;;;;;5017595;28;20414;-82
2023/11/08 01:10:51;;;;;;;2.28;0.85;;;8.80;99.90;;;;;;4970616;28;20152;-80
2023/11/08 01:13:17;;;;;;;2.45;0.60;;;8.70;99.90;;;;;;4986880;28;20565;-81
2023/11/08 01:15:43;;;;;;;2.97;0.70;;;8.70;99.90;;;;;;4970494;28;20043;-80
2023/11/08 01:18:10;;;;;;;0.80;0.30;;;8.70;99.90;;;;;;4975297;28;20034;-80
2023/11/08 01:20:35;;;;;;;5.82;1.02;;;8.70;99.90;;;;;;4971082;28;20095;-81
2023/11/08 01:23:02;;;;;;;7.22;0.90;;;8.60;99.90;;;;;;5008079;28;20161;-83
2023/11/08 01:25:27;;;;;;;3.15;1.02;;;8.60;99.90;;;;;;5015831;28;20390;-81
2023/11/08 01:27:53;;;;;;;6.40;1.40;;;8.60;99.90;;;;;;4983827;28;20030;-81
2023/11/08 01:30:19;;;;;;;5.20;0.57;;;8.50;99.90;;;;;;5001690;28;20037;-81
2023/11/08 01:32:44;;;;;;;2.88;0.70;;;8.50;99.90;;;;;;4970354;28;20121;-81
2023/11/08 01:35:11;;;;;;;3.03;0.60;;;8.50;99.90;;;;;;5000749;28;20038;-80
2023/11/08 01:37:39;;;;;;;4.40;1.00;;;8.40;99.90;;;;;;4987127;28;20089;-80
2023/11/08 01:40:06;;;;;;;4.13;1.00;;;8.50;99.90;;;;;;4986092;28;20031;-81
2023/11/08 01:42:33;;;;;;;0.45;0.38;;;8.40;99.90;;;;;;4970389;28;22230;-81
2023/11/08 01:44:59;;;;;;;4.40;1.00;;;8.30;99.90;;;;;;4982095;28;20104;-82
2023/11/08 01:47:25;;;;;;;1.38;0.50;;;8.40;99.90;;;;;;5001021;28;20027;-82
2023/11/08 01:49:51;;;;;;;2.53;0.90;;;8.40;99.90;;;;;;4988556;28;20351;-82
2023/11/08 01:52:17;;;;;;;1.05;0.77;;;8.30;99.90;;;;;;4986559;28;20092;-81
2023/11/08 01:54:45;;;;;;;1.17;0.40;;;8.30;99.90;;;;;;4970423;28;20069;-81
2023/11/08 01:57:10;;;;;;;0.95;0.70;;;8.40;99.90;;;;;;4983936;28;20041;-81
2023/11/08 01:59:36;;;;;;;3.60;0.63;;;8.40;99.90;;;;;;4986471;28;20109;-82
2023/11/08 02:02:01;;;;;;;3.00;0.40;;;8.30;99.90;;;;;;4986553;28;20054;-83
2023/11/08 02:04:28;;;;;;;2.47;0.82;;;8.40;99.90;;;;;;4987458;28;20705;-82
2023/11/08 02:06:54;;;;;;;5.25;1.23;;;8.30;99.90;;;;;;4970838;28;20038;-82
2023/11/08 02:09:20;;;;;;;7.65;0.80;;;8.30;99.90;;;;;;4986330;28;20093;-82
2023/11/08 02:11:45;;;;;;;2.72;1.00;;;8.30;99.90;;;;;;5000192;28;20042;-83
2023/11/08 02:14:11;;;;;;;1.17;0.45;;;8.30;99.90;;;;;;5000919;28;20105;-82
2023/11/08 02:16:37;;;;;;;3.72;0.90;;;8.30;99.90;;;;;;4985053;28;20038;-83
2023/11/08 02:19:05;;;;;;;0.65;0.40;;;8.30;99.90;;;;;;4985022;28;20115;-82
2023/11/08 02:21:31;;;;;;;2.40;0.88;;;8.30;99.90;;;;;;4970120;28;20033;-82
2023/11/08 02:23:57;;;;;;;4.38;0.68;;;8.30;99.90;;;;;;4982525;28;20138;-81
2023/11/08 02:26:22;;;;;;;2.53;0.80;;;8.40;99.90;;;;;;4966732;28;20080;-81
2023/11/08 02:28:48;;;;;;;5.18;0.90;;;8.30;99.90;;;;;;4984689;28;20542;-83
2023/11/08 02:31:14;;;;;;;3.00;0.70;;;8.20;99.90;;;;;;4996595;28;20046;-83
2023/11/08 02:33:40;;;;;;;0.82;0.70;;;8.20;99.90;;;;;;4985476;28;20027;-83
2023/11/08 02:36:06;;;;;;;0.73;0.40;;;8.30;99.90;;;;;;5015481;28;20093;-83
2023/11/08 02:38:31;;;;;;;1.00;0.20;;;8.30;99.90;;;;;;4985058;28;20038;-83
2023/11/08 02:40:57;;;;;;;1.80;0.60;;;8.30;99.90;;;;;;4968383;28;20414;-83
2023/11/08 02:43:24;;;;;;;2.55;0.68;;;8.30;99.90;;;;;;4984792;28;20061;-83
2023/11/08 02:45:49;;;;;;;3.38;0.80;;;8.30;99.90;;;;;;4997349;28;20102;-83
2023/11/08 02:48:15;;;;;;;3.97;1.15;;;8.30;99.90;;;;;;4983743;28;20554;-83
2023/11/08 02:50:41;;;;;;;3.00;1.00;;;8.30;99.90;;;;;;5000076;28;20030;-82
2023/11/08 02:53:07;;;;;;;1.05;0.75;;;8.30;99.90;;;;;;4988154;28;20372;-83
2023/11/08 02:55:34;;;;;;;0.80;0.40;;;8.30;99.90;;;;;;4984619;28;20085;-82
2023/11/08 02:57:59;;;;;;;2.38;0.22;;;8.20;99.90;;;;;;4967944;28;20145;-83
2023/11/08 03:00:25;;;;;;;2.72;0.40;;;8.10;99.90;;;;;;4985010;28;20195;-83
2023/11/08 03:02:51;;;;;;;1.23;0.57;;;8.20;99.90;;;;;;5002028;28;20503;-83
2023/11/08 03:05:23;;;;;;;0.70;0.45;;;8.10;99.90;;;;;;4968200;28;20066;-82
2023/11/08 03:07:51;;;;;;;2.58;0.60;;;8.10;99.90;;;;;;5008800;28;20049;-83
2023/11/08 03:10:17;;;;;;;8.30;0.80;;;8.10;99.90;;;;;;4983323;28;20382;-82
2023/11/08 03:12:46;;;;;;;3.55;0.75;;;8.10;99.90;;;;;;4985546;28;20034;-83
2023/11/08 03:15:16;;;;;;;2.38;0.50;;;8.00;99.90;;;;;;4984589;28;20042;-83
2023/11/08 03:17:45;;;;;;;4.78;0.73;;;8.10;99.90;;;;;;5001649;28;20033;-82
2023/11/08 03:20:15;;;;;;;2.15;0.70;;;8.00;99.90;;;;;;4950424;28;20042;-83
2023/11/08 03:22:44;;;;;;;4.03;0.65;;;8.10;99.90;;;;;;4983541;28;20733;-84
2023/11/08 03:25:13;;;;;;;5.72;0.93;;;8.10;99.90;;;;;;4982472;28;20039;-81
2023/11/08 03:27:41;;;;;;;0.88;0.30;;;8.00;99.90;;;;;;4968413;28;20030;-84
2023/11/08 03:30:08;;;;;;;3.85;0.60;;;8.00;99.90;;;;;;4983600;28;20026;-83
2023/11/08 03:32:33;;;;;;;4.30;1.08;;;8.10;99.90;;;;;;4985394;28;20490;-83
2023/11/08 03:34:59;;;;;;;4.95;0.90;;;8.10;99.90;;;;;;4968410;28;20033;-83
2023/11/08 03:37:24;;;;;;;4.03;0.75;;;8.10;99.90;;;;;;4997132;28;20058;-82
2023/11/08 03:39:51;;;;;;;1.02;0.50;;;8.10;99.90;;;;;;4984910;28;20466;-84
2023/11/08 03:42:16;;;;;;;2.45;0.60;;;8.10;99.90;;;;;;5000266;28;20237;-83
2023/11/08 03:44:42;;;;;;;1.23;0.57;;;8.00;99.90;;;;;;4967528;28;20130;-83
2023/11/08 03:47:10;;;;;;;1.92;0.82;;;8.10;99.90;;;;;;4982730;28;20053;-84
2023/11/08 03:49:35;;;;;;;0.65;0.25;;;8.10;99.90;;;;;;4969020;28;20033;-84
2023/11/08 03:52:02;;;;;;;4.75;0.63;;;8.20;99.90;;;;;;4985683;28;20117;-84
2023/11/08 03:54:28;;;;;;;3.20;0.68;;;8.10;99.90;;;;;;4988595;28;20465;-83
2023/11/08 03:56:53;;;;;;;1.05;0.60;;;8.20;99.90;;;;;;4988096;28;20137;-84
2023/11/08 03:59:19;;;;;;;0.40;0.30;;;8.20;99.90;;;;;;4988215;28;20045;-83
2023/11/08 04:01:47;;;;;;;4.72;0.82;;;8.20;99.90;;;;;;5002066;28;20030;-84
2023/11/08 04:04:13;;;;;;;2.35;0.50;;;8.20;99.90;;;;;;4986337;28;20494;-84
2023/11/08 04:06:38;;;;;;;4.70;0.63;;;8.20;99.90;;;;;;4972624;28;20038;-84
2023/11/08 04:09:04;;;;;;;0.75;0.43;;;8.20;99.90;;;;;;4972634;28;20186;-83
2023/11/08 04:11:30;;;;;;;4.20;0.43;;;8.20;99.90;;;;;;5000583;28;20465;-84
2023/11/08 04:13:56;;;;;;;1.67;0.47;;;8.30;99.90;;;;;;5017660;28;20112;-84
2023/11/08 04:16:21;;;;;;;6.20;0.47;;;8.20;99.90;;;;;;4987005;28;20042;-83
2023/11/08 04:18:47;;;;;;;2.33;0.50;;;8.20;99.90;;;;;;4987952;28;20023;-84
2023/11/08 04:21:14;;;;;;;7.57;1.08;;;8.20;99.90;;;;;;4990069;28;20042;-83
2023/11/08 04:23:39;;;;;;;3.00;0.65;;;8.20;99.90;;;;;;4971956;28;20036;-84
2023/11/08 04:26:06;;;;;;;3.10;0.47;;;8.20;99.90;;;;;;4972060;28;20030;-84
2023/11/08 04:28:32;;;;;;;0.43;0.43;;;8.20;99.90;;;;;;4984199;28;20033;-82
2023/11/08 04:30:58;;;;;;;3.33;0.98;;;8.20;99.90;;;;;;4987211;28;20042;-85
2023/11/08 04:33:24;;;;;;;3.13;0.50;;;8.20;99.90;;;;;;4985993;28;20438;-84
2023/11/08 04:35:49;;;;;;;3.55;0.55;;;8.20;99.90;;;;;;4981156;28;20027;-83
2023/11/08 04:38:15;;;;;;;1.63;0.65;;;8.20;99.90;;;;;;4985937;28;20485;-83
2023/11/08 04:40:41;;;;;;;1.75;0.50;;;8.20;99.90;;;;;;4972134;28;20129;-84
2023/11/08 04:43:06;;;;;;;6.60;0.65;;;8.20;99.90;;;;;;4971313;28;20034;-84
2023/11/08 04:45:32;;;;;;;1.45;0.88;;;8.20;99.90;;;;;;4998579;28;20027;-85
2023/11/08 04:47:57;;;;;;;7.68;1.48;;;8.20;99.90;;;;;;5002567;28;20109;-84
2023/11/08 04:50:23;;;;;;;1.52;0.80;;;8.10;99.90;;;;;;4985590;28;20049;-84
2023/11/08 04:52:49;;;;;;;1.10;0.38;;;8.10;99.90;;;;;;4987939;28;20030;-84
2023/11/08 04:55:14;;;;;;;1.92;0.32;;;8.10;99.90;;;;;;4972806;28;20410;-85
2023/11/08 04:57:40;;;;;;;3.53;0.75;;;8.10;99.90;;;;;;4971189;28;20042;-84
2023/11/08 05:00:06;;;;;;;5.50;0.60;;;8.10;99.90;;;;;;4986367;28;20034;-84
2023/11/08 05:02:33;;;;;;;1.40;0.55;;;8.00;99.90;;;;;;5003687;28;20046;-84
2023/11/08 05:04:59;;;;;;;5.15;0.80;;;8.10;99.90;;;;;;4971825;28;20085;-84
2023/11/08 05:07:25;;;;;;;0.73;0.40;;;8.00;99.90;;;;;;4984779;28;20038;-84
2023/11/08 05:09:53;;;;;;;2.90;1.02;;;8.10;99.90;;;;;;4987383;28;20035;-84
2023/11/08 05:12:19;;;;;;;3.70;0.68;;;8.10;99.90;;;;;;4999691;28;20046;-84
2023/11/08 05:14:45;;;;;;;2.80;0.70;;;8.10;99.90;;;;;;4984101;28;20043;-84
2023/11/08 05:17:10;;;;;;;3.88;0.55;;;8.00;99.90;;;;;;4959513;28;20035;-85
2023/11/08 05:19:36;;;;;;;3.92;1.17;;;8.10;99.90;;;;;;4988128;28;20541;-84
2023/11/08 05:22:02;;;;;;;6.82;0.90;;;8.20;99.90;;;;;;5000501;28;20038;-85
2023/11/08 05:24:28;;;;;;;3.30;0.65;;;8.10;99.90;;;;;;5004688;28;20039;-84
2023/11/08 05:26:53;;;;;;;3.25;0.80;;;8.10;99.90;;;;;;4984659;28;20045;-80
2023/11/08 05:29:19;;;;;;;3.63;0.82;;;7.90;99.90;;;;;;4984914;28;20034;-81
2023/11/08 05:31:45;;;;;;;2.45;0.55;;;7.90;99.90;;;;;;4983611;28;20054;-80
2023/11/08 05:34:10;;;;;;;2.47;0.85;;;7.90;99.90;;;;;;4968924;28;20034;-80
2023/11/08 05:36:36;;;;;;;2.38;0.88;;;8.00;99.90;;;;;;4982692;28;20049;-81
2023/11/08 05:39:03;;;;;;;1.45;0.55;;;7.80;99.90;;;;;;4985662;28;20034;-80
2023/11/08 05:41:28;;;;;;;2.08;0.40;;;7.90;99.90;;;;;;4983178;28;20529;-80
2023/11/08 05:43:57;;;;;;;2.70;0.70;;;7.90;99.90;;;;;;4968154;28;20038;-79
2023/11/08 05:46:24;;;;;;;2.10;0.50;;;7.90;99.90;;;;;;4985447;28;20038;-80
2023/11/08 05:48:50;;;;;;;1.60;0.50;;;7.90;99.90;;;;;;4984710;28;20065;-80
2023/11/08 05:51:15;;;;;;;1.38;0.70;;;7.90;99.90;;;;;;4969193;28;20509;-79
2023/11/08 05:53:41;;;;;;;1.33;0.63;;;7.90;99.90;;;;;;4982600;28;20045;-79
2023/11/08 05:56:06;;;;;;;4.72;0.45;;;7.90;99.90;;;;;;4984674;28;20080;-79
2023/11/08 05:58:35;;;;;;;0.63;0.63;;;7.90;99.90;;;;;;4995417;28;20031;-80
2023/11/08 06:01:02;;;;;;;2.50;0.77;;;7.90;99.90;;;;;;4968227;28;20122;-80
2023/11/08 06:03:28;;;;;;;0.60;0.50;;;7.80;99.90;;;;;;4983976;28;20034;-80
2023/11/08 06:05:53;;;;;;;5.38;0.98;;;7.70;99.90;;;;;;4984018;28;20041;-80
2023/11/08 06:08:19;;;;;;;2.95;0.70;;;7.70;99.90;;;;;;4966272;28;20118;-80
2023/11/08 06:10:44;;;;;;;0.73;0.57;;;7.80;99.90;;;;;;4984691;28;20092;-80
2023/11/08 06:13:10;;;;;;;1.58;0.63;;;7.70;99.90;;;;;;5000849;28;20045;-80
2023/11/08 06:15:36;;;;;;;2.97;0.88;;;7.80;99.90;;;;;;4980161;28;20034;-80
2023/11/08 06:18:01;;;;;;;5.00;1.00;;;7.70;99.90;;;;;;4987258;28;20041;-79
2023/11/08 06:20:27;;;;;;;3.35;1.10;;;7.70;99.90;;;;;;4983868;28;20027;-81
2023/11/08 06:22:53;;;;;;;0.20;0.20;;;7.70;99.90;;;;;;4966197;28;20573;-80
2023/11/08 06:25:20;;;;;;;0.85;0.50;;;7.60;99.90;;;;;;4966972;28;20031;-79
2023/11/08 06:27:46;;;;;;;3.47;1.10;;;7.60;99.90;;;;;;4983984;28;20486;-80
2023/11/08 06:30:12;;;;;;;1.15;0.73;;;7.60;99.90;;;;;;4993383;28;20030;-79
2023/11/08 06:32:38;;;;;;;6.38;1.27;;;7.60;99.90;;;;;;4972612;28;20054;-80
2023/11/08 06:35:05;;;;;;;5.47;1.30;;;7.60;99.90;;;;;;4951943;28;20134;-80
2023/11/08 06:37:31;;;;;;;7.32;1.08;;;7.70;99.90;;;;;;4967735;28;20490;-80
2023/11/08 06:39:56;;;;;;;3.17;0.75;;;7.70;99.90;;;;;;4982771;28;20037;-80
2023/11/08 06:42:22;;;;;;;1.23;0.50;;;7.60;99.90;;;;;;4985224;28;20077;-81
2023/11/08 06:44:48;;;;;;;2.65;1.00;;;7.70;99.90;;;;;;4983074;28;20030;-81
2023/11/08 06:47:15;;;;;;;2.97;1.10;;;7.60;99.90;;;;;;4984932;28;20031;-79
2023/11/08 06:49:41;;;;;;;7.32;1.02;;;7.60;99.90;;;;;;4982433;28;20034;-80
2023/11/08 06:52:06;;;;;;;5.13;0.80;;;7.60;99.90;;;;;;4983277;28;20043;-79
2023/11/08 06:54:33;;;;;;;0.60;0.43;;;7.50;99.90;;;;;;4994967;28;20027;-80
2023/11/08 06:56:59;;;;;;;3.40;0.80;;;7.70;99.90;;;;;;4966519;28;20402;-79
2023/11/08 06:59:24;;;;;;;0.73;0.50;;;7.60;99.90;;;;;;5000150;28;20038;-81
2023/11/08 07:01:50;;;;;;;2.80;1.15;;;7.60;99.90;;;;;;4967531;28;20543;-80
2023/11/08 07:04:16;;;;;;;7.20;1.20;;;7.70;99.90;;;;;;4983363;28;20031;-79
2023/11/08 07:06:42;;;;;;;4.78;1.05;;;7.70;99.90;;;;;;4983211;28;20352;-81
2023/11/08 07:09:09;;;;;;;3.47;1.17;;;7.70;99.90;;;;;;4981378;28;20035;-81
2023/11/08 07:11:35;;;;;;;5.75;1.30;;;7.70;99.90;;;;;;4983022;28;20038;-82
2023/11/08 07:14:00;;;;;;;1.30;0.50;;;7.60;99.90;;;;;;4982738;28;20044;-80
2023/11/08 07:16:26;;;;;;;5.10;1.52;;;7.70;99.90;;;;;;4967503;28;20029;-81
2023/11/08 07:18:53;;;;;;;2.05;0.98;;;7.70;99.90;;;;;;4982630;28;20034;-81
2023/11/08 07:21:19;;;;;;;4.68;0.70;;;7.70;99.90;;;;;;4984195;28;20137;-79
2023/11/08 07:23:45;;;;;;;1.02;0.55;;;7.70;99.90;;;;;;4983470;28;20128;-80
2023/11/08 07:26:13;;;;;;;7.63;1.13;;;7.70;99.90;;;;;;4983045;28;20031;-79
2023/11/08 07:28:45;;;;;;;3.45;1.00;;;7.70;99.90;;;;;;4981585;28;20406;-79
2023/11/08 07:31:12;;;;;;;3.28;1.30;;;7.70;99.90;;;;;;4965760;28;20098;-81
2023/11/08 07:33:37;;;;;;;3.60;1.27;;;7.80;99.90;;;;;;4982795;28;20104;-79
2023/11/08 07:36:04;;;;;;;2.50;0.88;;;7.80;99.90;;;;;;4966534;28;20438;-80
2023/11/08 07:38:30;;;;;;;7.50;1.35;;;7.80;99.90;;;;;;4980285;28;20054;-80
2023/11/08 07:40:57;;;;;;;3.33;1.60;;;7.90;99.90;;;;;;4983264;28;20678;-79
2023/11/08 07:43:23;;;;;;;8.52;1.38;;;7.90;99.90;;;;;;4982571;28;20038;-79
2023/11/08 07:45:49;;;;;;;9.45;1.77;;;7.90;99.90;;;;;;4984968;28;20030;-79
2023/11/08 07:48:14;;;;;;;4.30;0.93;;;8.00;99.90;;;;;;4982098;28;20118;-79
2023/11/08 07:50:40;;;;;;;3.55;1.50;;;8.00;99.90;;;;;;4982152;28;20483;-80
2023/11/08 07:53:06;;;;;;;8.65;1.50;;;8.10;99.90;;;;;;4981917;28;20092;-79
2023/11/08 07:55:31;;;;;;;3.60;1.20;;;8.10;99.90;;;;;;4984127;28;20410;-80
2023/11/08 07:57:57;;;;;;;4.10;1.33;;;8.20;99.90;;;;;;4965778;28;20034;-79
2023/11/08 08:00:24;;;;;;;4.43;0.90;;;8.20;99.90;;;;;;4982013;28;20541;-79
2023/11/08 08:02:49;;;;;;;2.40;0.47;;;8.20;99.90;;;;;;4984219;28;20057;-81
2023/11/08 08:05:15;;;;;;;6.53;1.33;;;8.30;99.90;;;;;;4982155;28;20038;-80
2023/11/08 08:07:41;;;;;;;3.47;1.42;;;8.20;99.90;;;;;;4978635;28;20034;-79
2023/11/08 08:10:07;;;;;;;4.40;1.20;;;8.20;99.90;;;;;;4966880;28;20038;-79
2023/11/08 08:12:33;;;;;;;4.00;1.40;;;8.30;99.90;;;;;;4983697;28;20042;-79
2023/11/08 08:14:59;;;;;;;8.57;1.63;;;8.30;99.90;;;;;;4983175;28;20041;-79
2023/11/08 08:17:25;;;;;;;1.73;0.90;;;8.40;99.90;;;;;;4983252;28;20038;-78
2023/11/08 08:19:53;;;;;;;4.93;1.90;;;8.50;99.90;;;;;;4982431;28;20030;-79
2023/11/08 08:22:20;;;;;;;3.30;1.25;;;8.40;99.90;;;;;;4982843;28;20030;-79
2023/11/08 08:24:47;;;;;;;1.90;1.08;;;8.50;99.90;;;;;;4997524;28;20129;-80
2023/11/08 08:27:13;;;;;;;3.95;1.25;;;8.50;99.90;;;;;;4995562;28;20046;-81
2023/11/08 08:29:39;;;;;;;4.75;1.25;;;8.60;99.90;;;;;;4968508;28;20038;-80
2023/11/08 08:32:04;;;;;;;3.53;1.52;;;8.60;99.90;;;;;;4968020;28;20087;-80
2023/11/08 08:34:30;;;;;;;4.68;1.25;;;8.70;99.90;;;;;;4954982;28;20031;-79
2023/11/08 08:36:56;;;;;;;10.00;2.08;;;8.70;99.90;;;;;;4974457;28;20042;-79
2023/11/08 08:39:27;;;;;;;5.70;1.10;;;8.90;99.90;;;;;;4985371;28;20038;-78
2023/11/08 08:41:53;;;;;;;10.23;1.20;;;8.90;99.90;;;;;;4984789;28;20034;-81
2023/11/08 08:44:19;;;;;;;9.85;0.82;;;9.00;99.90;;;;;;4983602;28;20033;-79
2023/11/08 08:46:45;;;;;;;1.67;0.50;;;9.10;99.90;;;;;;4983538;28;20038;-79
2023/11/08 08:49:12;;;;;;;5.85;1.00;;;9.20;99.90;;;;;;5012933;28;20038;-79
2023/11/08 08:51:38;;;;;;;3.83;0.85;;;9.30;99.90;;;;;;4970157;28;20041;-79
2023/11/08 08:54:06;;;;;;;3.72;1.23;;;9.40;99.90;;;;;;4985565;28;20050;-79
2023/11/08 08:56:35;;;;;;;3.08;1.23;;;9.60;99.90;;;;;;4998065;28;20038;-79
2023/11/08 08:59:01;;;;;;;7.53;1.40;;;9.70;99.90;;;;;;4984254;28;20042;-80
2023/11/08 09:01:26;;;;;;;3.08;1.40;;;9.80;99.90;;;;;;4985682;28;20042;-79
2023/11/08 09:03:52;;;;;;;3.85;0.88;;;9.90;99.90;;;;;;4988298;28;20065;-79
2023/11/08 09:06:21;;;;;;;6.35;1.08;;;10.00;99.90;;;;;;4968855;28;20054;-78
2023/11/08 09:08:47;;;;;;;4.65;0.88;;;10.20;99.90;;;;;;4999565;28;20077;-78
2023/11/08 09:11:13;;;;;;;9.15;1.08;;;10.20;99.90;;;;;;4970025;28;20042;-78
2023/11/08 09:13:39;;;;;;;7.72;1.27;;;10.40;99.90;;;;;;4985813;28;20921;-79
2023/11/08 09:16:07;;;;;;;4.60;1.23;;;10.40;99.90;;;;;;5000113;28;20034;-79
2023/11/08 09:18:33;;;;;;;7.10;1.35;;;10.40;99.90;;;;;;4984711;28;20118;-78
2023/11/08 09:20:59;;;;;;;2.47;0.80;;;10.50;99.90;;;;;;4994235;28;20085;-78
2023/11/08 09:23:28;;;;;;;1.88;0.70;;;10.50;99.90;;;;;;4969555;28;20046;-79
2023/11/08 09:25:56;;;;;;;4.28;1.00;;;10.50;99.90;;;;;;4968703;28;20086;-79
2023/11/08 09:28:22;;;;;;;6.53;0.70;;;10.50;99.90;;;;;;4988001;28;20076;-79
2023/11/08 09:30:48;;;;;;;1.05;0.60;;;10.50;99.90;;;;;;4984837;28;20034;-78
2023/11/08 09:33:13;;;;;;;5.60;0.63;;;10.40;99.90;;;;;;4985021;28;20114;-79
2023/11/08 09:35:39;;;;;;;4.25;0.73;;;10.40;99.90;;;;;;4969111;28;20038;-79
2023/11/08 09:38:04;;;;;;;8.10;2.00;;;10.50;99.90;;;;;;4984727;28;20035;-79
2023/11/08 09:40:31;;;;;;;3.25;1.05;;;10.60;99.90;;;;;;4996920;28;20081;-79
2023/11/08 09:42:58;;;;;;;4.15;1.02;;;10.70;99.90;;;;;;4986539;28;20503;-79
2023/11/08 09:45:28;;;;;;;1.38;0.70;;;10.80;99.90;;;;;;5014825;28;20083;-79
2023/11/08 09:47:54;;;;;;;0.88;0.65;;;10.90;99.90;;;;;;4968391;28;21232;-79
2023/11/08 09:50:20;;;;;;;4.68;0.90;;;10.90;99.90;;;;;;4983078;28;20037;-78
2023/11/08 09:52:46;;;;;;;3.17;1.15;;;11.00;99.90;;;;;;4984326;28;20038;-78
2023/11/08 09:55:12;;;;;;;4.05;1.10;;;11.30;99.90;;;;;;4967760;28;20548;-78
2023/11/08 09:57:39;;;;;;;4.80;1.10;;;11.60;99.90;;;;;;4983902;28;20040;-79
2023/11/08 10:00:06;;;;;;;1.55;0.70;;;11.90;99.90;;;;;;4985702;28;20069;-79
2023/11/08 10:02:33;;;;;;;5.50;0.90;;;11.90;99.90;;;;;;5011197;28;20104;-78
2023/11/08 10:04:59;;;;;;;2.58;0.80;;;12.10;99.90;;;;;;5015318;28;20113;-78
2023/11/08 10:07:25;;;;;;;2.38;0.52;;;12.30;99.90;;;;;;4984829;28;20062;-78
2023/11/08 10:09:50;;;;;;;3.85;0.60;;;12.30;99.90;;;;;;4972380;28;20041;-78
2023/11/08 10:12:22;;;;;;;8.23;1.20;;;12.40;99.90;;;;;;4940785;28;20034;-78
2023/11/08 10:14:57;;;;;;;4.35;0.70;;;12.20;99.90;;;;;;4951762;28;20045;-78
2023/11/08 10:17:40;;;;;;;2.03;0.57;;;12.20;99.90;;;;;;4998207;28;20031;-78
2023/11/08 10:20:08;;;;;;;6.97;0.98;;;12.20;99.90;;;;;;4948301;28;20089;-78
2023/11/08 10:22:34;;;;;;;2.17;0.52;;;12.30;99.90;;;;;;5000348;28;20054;-78
2023/11/08 10:25:02;;;;;;;10.63;0.75;;;12.50;99.90;;;;;;5004516;28;20073;-78
2023/11/08 10:27:29;;;;;;;3.20;0.85;;;12.50;99.90;;;;;;4968852;28;20038;-78
2023/11/08 10:30:17;;;;;;;4.82;0.68;;;12.50;99.90;;;;;;4966617;28;20053;-79
2023/11/08 10:32:43;;;;;;;4.32;0.85;;;12.40;99.90;;;;;;5014872;28;20048;-78
2023/11/08 10:35:18;;;;;;;8.00;0.70;;;12.60;99.90;;;;;;5013204;28;20391;-78
2023/11/08 10:37:44;;;;;;;6.33;0.73;;;12.70;99.90;;;;;;4999533;28;20459;-78
2023/11/08 10:40:12;;;;;;;2.90;0.95;;;12.80;99.90;;;;;;4996639;28;20037;-78
2023/11/08 10:42:38;;;;;;;4.10;0.93;;;13.00;99.90;;;;;;4967494;28;20129;-78
2023/11/08 10:45:10;;;;;;;8.75;1.55;;;13.00;99.90;;;;;;4997468;28;20424;-78
2023/11/08 10:47:37;;;;;;;1.80;0.60;;;13.10;99.90;;;;;;4982100;28;20038;-77
2023/11/08 10:50:05;;;;;;;5.00;0.98;;;13.10;99.90;;;;;;4996204;28;20034;-79
2023/11/08 10:52:34;;;;;;;11.27;0.80;;;13.30;99.90;;;;;;4998182;28;20042;-79
2023/11/08 10:55:03;;;;;;;0.68;0.43;;;13.20;99.90;;;;;;4991381;28;20381;-78
2023/11/08 10:57:29;;;;;;;5.30;1.08;;;13.40;99.90;;;;;;4983683;28;20109;-78
2023/11/08 10:59:56;;;;;;;5.70;0.82;;;13.50;99.90;;;;;;4983109;28;20149;-78
2023/11/08 11:02:36;;;;;;;4.80;0.85;;;13.70;99.90;;;;;;4968180;28;20045;-78
2023/11/08 11:05:08;;;;;;;5.03;0.73;;;13.70;99.90;;;;;;4998096;28;20038;-78
2023/11/08 11:07:33;;;;;;;4.32;1.05;;;13.70;99.90;;;;;;4968311;28;20532;-79
2023/11/08 11:09:59;;;;;;;4.22;0.55;;;13.80;99.90;;;;;;4983669;28;20134;-78
2023/11/08 11:12:39;;;;;;;0.50;0.20;;;14.00;99.90;;;;;;4966974;28;20031;-78
2023/11/08 11:15:09;;;;;;;3.30;0.90;;;13.80;99.90;;;;;;4967817;28;20041;-78
2023/11/08 11:17:38;;;;;;;5.43;0.93;;;14.00;99.90;;;;;;4982981;28;20041;-78
2023/11/08 11:20:07;;;;;;;3.03;0.65;;;14.10;99.90;;;;;;4982653;28;20122;-78
2023/11/08 11:22:33;;;;;;;3.50;0.65;;;14.10;99.90;;;;;;4993903;28;20505;-78
2023/11/08 11:24:58;;;;;;;1.42;0.40;;;14.20;99.90;;;;;;4983878;28;20031;-76
2023/11/08 11:27:33;;;;;;;5.97;0.97;;;14.10;99.90;;;;;;4294092;28;10000335;-78
2023/11/08 11:30:13;;;;;;;6.43;1.13;;;14.10;99.90;;;;;;4980950;28;20276;-78
2023/11/08 11:32:46;;;;;;;5.53;0.88;;;14.10;99.90;;;;;;4982302;28;20596;-77
2023/11/08 11:35:29;;;;;;;4.30;0.63;;;14.00;99.90;;;;;;4975753;28;21298;-76
2023/11/08 11:38:07;;;;;;;4.70;0.98;;;14.00;99.90;;;;;;5008572;28;20491;-77
2023/11/08 11:40:36;;;;;;;1.73;0.60;;;14.00;99.90;;;;;;4981452;28;20038;-76
2023/11/08 11:43:02;;;;;;;4.43;1.77;;;14.20;99.90;;;;;;4979344;28;20081;-77
2023/11/08 11:45:31;;;;;;;2.05;0.13;;;14.10;99.90;;;;;;4998786;28;20027;-76
2023/11/08 11:47:56;;;;;;;6.88;0.95;;;14.20;99.90;;;;;;4951595;28;20052;-77
2023/11/08 11:50:23;;;;;;;3.85;0.75;;;14.30;99.90;;;;;;4954349;28;20027;-78
2023/11/08 11:52:49;;;;;;;4.40;1.00;;;14.40;99.90;;;;;;4983739;28;20050;-76
2023/11/08 11:55:15;;;;;;;5.38;1.17;;;14.40;99.90;;;;;;4982862;28;20041;-77
2023/11/08 11:57:40;;;;;;;3.95;0.70;;;14.40;99.90;;;;;;4967754;28;20050;-77
2023/11/08 12:00:10;;;;;;;1.75;0.75;;;14.30;99.90;;;;;;4982783;28;20666;-77
2023/11/08 12:02:42;;;;;;;4.13;0.80;;;14.30;99.90;;;;;;4999004;28;20068;-76
2023/11/08 12:05:08;;;;;;;6.30;0.95;;;14.30;99.90;;;;;;4982364;28;20034;-77
2023/11/08 12:07:36;;;;;;;2.08;0.73;;;14.40;99.90;;;;;;4983264;28;20561;-77
2023/11/08 12:10:10;;;;;;;4.57;0.75;;;14.40;99.90;;;;;;4981693;28;20026;-76
2023/11/08 12:12:38;;;;;;;2.30;0.75;;;14.30;99.90;;;;;;4968299;28;20034;-77
2023/11/08 12:15:18;;;;;;;1.42;0.80;;;14.30;99.90;;;;;;5001604;28;20041;-77
2023/11/08 12:17:50;;;;;;;1.90;0.60;;;14.30;99.80;;;;;;4988935;28;20081;-77
2023/11/08 12:20:17;;;;;;;2.00;0.93;;;14.30;99.90;;;;;;5017690;28;20097;-78
2023/11/08 12:22:48;;;;;;;3.15;0.57;;;14.30;99.70;;;;;;4987241;28;20033;-77
2023/11/08 12:25:13;;;;;;;3.67;0.70;;;14.30;98.90;;;;;;5006184;28;20035;-78
2023/11/08 12:27:39;;;;;;;6.43;1.10;;;14.40;99.00;;;;;;5016818;28;20993;-77
2023/11/08 12:30:05;;;;;;;4.85;0.98;;;14.50;99.00;;;;;;5001245;28;20474;-77
2023/11/08 12:32:30;;;;;;;2.72;0.55;;;14.40;99.00;;;;;;4970767;28;20045;-76
2023/11/08 12:34:57;;;;;;;11.50;1.10;;;14.40;99.90;;;;;;4969541;28;20406;-77
2023/11/08 12:37:24;;;;;;;6.93;0.70;;;14.40;99.70;;;;;;4986846;28;20455;-76
2023/11/08 12:39:50;;;;;;;10.32;1.50;;;14.40;99.00;;;;;;5000603;28;20038;-77
2023/11/08 12:42:16;;;;;;;1.92;0.63;;;14.30;99.40;;;;;;4999351;28;20038;-79
2023/11/08 12:44:46;;;;;;;0.50;0.40;;;14.30;99.30;;;;;;4985919;28;20037;-77
2023/11/08 12:47:12;;;;;;;3.05;0.82;;;14.10;99.30;;;;;;4956674;28;20038;-78
2023/11/08 12:49:37;;;;;;;1.17;1.10;;;14.10;99.90;;;;;;5017064;28;20031;-78